CYQX

Gander International Airport

Gander, Canada
METAR CYQX 192000Z 26005KT 3SM -RA BR SCT002 BKN006 OVC012 13/13 A2924 RMK SF3SF4SC1 SLP907 DENSITY ALT 1200FT
Observed Flight Rules
Jun-19 @ 20:00 UTC (19 minutes ago) Instrument Flight Rules
Wind Visibility Clouds Conditions
260° at 5 knots 3 miles
  • Scattered at 200' AGL
  • Broken at 600' AGL
  • Overcast at 1,200' AGL
  • Light Rain
  • Mist
Temperatures Readings
Current 13°C / 55°F
Dewpoint 13°C / 55°F
Humidity 100%
Altimeter 29.24" Hg
Pressure 990.7 hPa
Elevation 151
METAR CYQX 192000Z 26005KT 3SM -RA BR SCT002 BKN006 OVC012 13/13 A2924 RMK SF3SF4SC1 SLP907 DENSITY ALT 1200FT
Observed Flight Rules
Jun-19 @ 20:00 UTC
(19 minutes ago)
IFR
Wind Visibility
260° at 5 knots 3 miles
Clouds
  • Scattered at 200' AGL
  • Broken at 600' AGL
  • Overcast at 1,200' AGL
Conditions
  • Light Rain
  • Mist
Temperature Dewpoint
13°C / 55°F 13°C / 55°F
Humidity Altimeter Pressure
100% 29.24" Hg 990.7 hPa